Pagrindinis puslapis
METAR-TAF:

METAR-TAF

Oro uostai :

Del Rio International Airport

Del Rio, Teksasas, Jungtinės Amerikos Valstijos

platuma: 29-22-29N, ilguma: 100-55-25W, Aukštis: 304 m

Dabartinis oras

Ataskaita buvo paskelbta 51 minutes, ne 10:53 UTC
Ramus vėjas
Temperatūra 20°C
Drėgmė 83%
Slėgis 1019 hPa
Matomumas: 16.1 km
Giedras dangus

METAR: KDRT 291053Z AUTO 00000KT 10SM CLR 20/17 A3010 RMK AO2 SLP178 T02000172

Laikas: 06:44 (11:44 UTC)

Prognozė

Ataskaita buvo paskelbta 9 minutes, ne 11:35 UTC
Prognozė galioja nuo 29 metu 12 UTC su 30 metu 12 UTC
Vėjas 4 kt iš Šiaurės Vakarų
Matomumas: 10 km
Su prošvaistėmis ne aukštis 25000 ft
Nuo 29 metu 1700 UTC
Vėjas 5 kt iš Šiaurės
Matomumas: 10 km
Išsisklaidę debesys ne aukštis 5000 ft
Išsisklaidę debesys ne aukštis 25000 ft
Nuo 29 metu 2000 UTC
Vėjas 5 kt iš Rytų
Matomumas: 10 km
Su prošvaistėmis ne aukštis 7000 ft
Su prošvaistėmis ne aukštis 25000 ft

TAF: KDRT 291135Z 2912/3012 32004KT P6SM BKN250 FM291700 35005KT P6SM SCT050 SCT250 FM292000 10005KT P6SM BKN070 BKN250

Orai ataskaitas ir orų prognozės (METAR, TAF).

turimą stotys yra geltonos ir raudonos taškus žemėlapyje.

Perkelti pele per norėdami pamatyti stoties vardą.

Tada spustelėkite, norėdami matyti oro stebėjimo ir prognozės.

Norėdami pakeisti žemėlapį: spustelėkite ant žalios mygtukų su juodo kryžiaus žemyn,; žalią mygtuką su brūkšneliu, jei norite nutolinti; arba žalių rodyklių gretimoms žemėlapius.


METAR-TAF: